sensor_id;sensor_type;location;lat;lon;timestamp;P1;durP1;ratioP1;P2;durP2;ratioP2
46897;SDS011;32646;50.958;6.258;2022-12-10T00:00:42;0.20;;;0.20;;
46897;SDS011;32646;50.958;6.258;2022-12-10T00:03:08;0.20;;;0.20;;
46897;SDS011;32646;50.958;6.258;2022-12-10T00:05:35;0.30;;;0.30;;
46897;SDS011;32646;50.958;6.258;2022-12-10T00:08:02;0.20;;;0.20;;
46897;SDS011;32646;50.958;6.258;2022-12-10T00:10:28;0.20;;;0.20;;
46897;SDS011;32646;50.958;6.258;2022-12-10T00:12:55;0.20;;;0.20;;
46897;SDS011;32646;50.958;6.258;2022-12-10T00:15:21;0.22;;;0.22;;
46897;SDS011;32646;50.958;6.258;2022-12-10T00:17:48;0.20;;;0.20;;
46897;SDS011;32646;50.958;6.258;2022-12-10T00:20:14;0.20;;;0.20;;
46897;SDS011;32646;50.958;6.258;2022-12-10T00:22:41;0.20;;;0.20;;
46897;SDS011;32646;50.958;6.258;2022-12-10T00:25:07;0.22;;;0.22;;
46897;SDS011;32646;50.958;6.258;2022-12-10T00:27:34;0.20;;;0.20;;
46897;SDS011;32646;50.958;6.258;2022-12-10T00:30:01;0.30;;;0.30;;
46897;SDS011;32646;50.958;6.258;2022-12-10T00:32:27;0.30;;;0.30;;
46897;SDS011;32646;50.958;6.258;2022-12-10T00:34:54;0.20;;;0.20;;
46897;SDS011;32646;50.958;6.258;2022-12-10T00:37:20;0.30;;;0.30;;
46897;SDS011;32646;50.958;6.258;2022-12-10T00:39:47;0.20;;;0.20;;
46897;SDS011;32646;50.958;6.258;2022-12-10T00:42:13;0.20;;;0.20;;
46897;SDS011;32646;50.958;6.258;2022-12-10T00:44:40;0.30;;;0.30;;
46897;SDS011;32646;50.958;6.258;2022-12-10T00:47:06;0.20;;;0.20;;
46897;SDS011;32646;50.958;6.258;2022-12-10T00:49:33;0.30;;;0.30;;
46897;SDS011;32646;50.958;6.258;2022-12-10T00:51:59;0.20;;;0.20;;
46897;SDS011;32646;50.958;6.258;2022-12-10T00:54:26;0.20;;;0.20;;
46897;SDS011;32646;50.958;6.258;2022-12-10T00:56:52;0.28;;;0.28;;
46897;SDS011;32646;50.958;6.258;2022-12-10T00:59:19;0.30;;;0.30;;
46897;SDS011;32646;50.958;6.258;2022-12-10T01:01:45;0.40;;;0.40;;
46897;SDS011;32646;50.958;6.258;2022-12-10T01:04:13;0.30;;;0.30;;
46897;SDS011;32646;50.958;6.258;2022-12-10T01:09:11;0.40;;;0.40;;
46897;SDS011;32646;50.958;6.258;2022-12-10T01:11:40;0.30;;;0.30;;
46897;SDS011;32646;50.958;6.258;2022-12-10T01:14:10;0.30;;;0.30;;
46897;SDS011;32646;50.958;6.258;2022-12-10T01:16:38;0.30;;;0.30;;
46897;SDS011;32646;50.958;6.258;2022-12-10T01:19:05;0.30;;;0.30;;
46897;SDS011;32646;50.958;6.258;2022-12-10T01:21:32;0.20;;;0.20;;
46897;SDS011;32646;50.958;6.258;2022-12-10T01:23:59;0.30;;;0.30;;
46897;SDS011;32646;50.958;6.258;2022-12-10T01:26:27;0.45;;;0.40;;
46897;SDS011;32646;50.958;6.258;2022-12-10T01:28:56;0.40;;;0.40;;
46897;SDS011;32646;50.958;6.258;2022-12-10T01:31:24;0.30;;;0.30;;
46897;SDS011;32646;50.958;6.258;2022-12-10T01:33:57;0.40;;;0.40;;
46897;SDS011;32646;50.958;6.258;2022-12-10T01:36:26;0.30;;;0.30;;
46897;SDS011;32646;50.958;6.258;2022-12-10T01:38:56;0.35;;;0.35;;
46897;SDS011;32646;50.958;6.258;2022-12-10T01:41:31;0.40;;;0.40;;
46897;SDS011;32646;50.958;6.258;2022-12-10T01:44:01;0.30;;;0.30;;
46897;SDS011;32646;50.958;6.258;2022-12-10T01:46:41;0.43;;;0.43;;
46897;SDS011;32646;50.958;6.258;2022-12-10T01:49:14;0.32;;;0.32;;
46897;SDS011;32646;50.958;6.258;2022-12-10T01:51:43;0.30;;;0.30;;
46897;SDS011;32646;50.958;6.258;2022-12-10T01:54:14;0.30;;;0.30;;
46897;SDS011;32646;50.958;6.258;2022-12-10T01:56:43;0.30;;;0.30;;
46897;SDS011;32646;50.958;6.258;2022-12-10T01:59:13;0.30;;;0.30;;
46897;SDS011;32646;50.958;6.258;2022-12-10T02:07:02;0.40;;;0.40;;
46897;SDS011;32646;50.958;6.258;2022-12-10T02:12:21;0.40;;;0.40;;
46897;SDS011;32646;50.958;6.258;2022-12-10T02:14:56;0.40;;;0.40;;
46897;SDS011;32646;50.958;6.258;2022-12-10T02:17:27;0.40;;;0.40;;
46897;SDS011;32646;50.958;6.258;2022-12-10T02:20:07;0.40;;;0.40;;
46897;SDS011;32646;50.958;6.258;2022-12-10T02:22:48;0.25;;;0.25;;
46897;SDS011;32646;50.958;6.258;2022-12-10T02:25:34;0.30;;;0.30;;
46897;SDS011;32646;50.958;6.258;2022-12-10T02:30:56;0.30;;;0.30;;
46897;SDS011;32646;50.958;6.258;2022-12-10T02:33:26;0.30;;;0.30;;
46897;SDS011;32646;50.958;6.258;2022-12-10T02:35:54;0.30;;;0.30;;
46897;SDS011;32646;50.958;6.258;2022-12-10T02:38:26;0.30;;;0.30;;
46897;SDS011;32646;50.958;6.258;2022-12-10T02:41:04;0.28;;;0.28;;
46897;SDS011;32646;50.958;6.258;2022-12-10T02:43:33;0.30;;;0.30;;
46897;SDS011;32646;50.958;6.258;2022-12-10T02:46:02;0.20;;;0.20;;
46897;SDS011;32646;50.958;6.258;2022-12-10T02:48:30;0.20;;;0.20;;
46897;SDS011;32646;50.958;6.258;2022-12-10T02:50:58;0.30;;;0.30;;
46897;SDS011;32646;50.958;6.258;2022-12-10T02:53:26;0.20;;;0.20;;
46897;SDS011;32646;50.958;6.258;2022-12-10T03:01:21;0.30;;;0.30;;
46897;SDS011;32646;50.958;6.258;2022-12-10T03:03:53;0.20;;;0.20;;
46897;SDS011;32646;50.958;6.258;2022-12-10T03:06:30;0.25;;;0.25;;
46897;SDS011;32646;50.958;6.258;2022-12-10T03:09:04;0.30;;;0.30;;
46897;SDS011;32646;50.958;6.258;2022-12-10T03:11:41;0.20;;;0.20;;
46897;SDS011;32646;50.958;6.258;2022-12-10T03:14:17;0.20;;;0.20;;
46897;SDS011;32646;50.958;6.258;2022-12-10T03:16:51;0.20;;;0.20;;
46897;SDS011;32646;50.958;6.258;2022-12-10T03:19:23;0.20;;;0.20;;
46897;SDS011;32646;50.958;6.258;2022-12-10T03:21:54;0.20;;;0.20;;
46897;SDS011;32646;50.958;6.258;2022-12-10T03:24:22;0.22;;;0.22;;
46897;SDS011;32646;50.958;6.258;2022-12-10T03:26:52;0.20;;;0.20;;
46897;SDS011;32646;50.958;6.258;2022-12-10T03:29:21;0.20;;;0.20;;
46897;SDS011;32646;50.958;6.258;2022-12-10T03:31:52;0.20;;;0.20;;
46897;SDS011;32646;50.958;6.258;2022-12-10T03:34:19;0.20;;;0.20;;
46897;SDS011;32646;50.958;6.258;2022-12-10T03:36:47;0.20;;;0.20;;
46897;SDS011;32646;50.958;6.258;2022-12-10T03:39:14;0.20;;;0.20;;
46897;SDS011;32646;50.958;6.258;2022-12-10T03:41:41;0.20;;;0.20;;
46897;SDS011;32646;50.958;6.258;2022-12-10T03:44:08;0.20;;;0.20;;
46897;SDS011;32646;50.958;6.258;2022-12-10T03:46:34;0.25;;;0.25;;
46897;SDS011;32646;50.958;6.258;2022-12-10T03:49:02;0.20;;;0.20;;
46897;SDS011;32646;50.958;6.258;2022-12-10T03:51:31;0.20;;;0.20;;
46897;SDS011;32646;50.958;6.258;2022-12-10T03:53:57;0.20;;;0.20;;
46897;SDS011;32646;50.958;6.258;2022-12-10T03:56:24;0.20;;;0.20;;
46897;SDS011;32646;50.958;6.258;2022-12-10T03:58:50;0.20;;;0.20;;
46897;SDS011;32646;50.958;6.258;2022-12-10T04:01:17;0.20;;;0.20;;
46897;SDS011;32646;50.958;6.258;2022-12-10T04:03:44;0.20;;;0.20;;
46897;SDS011;32646;50.958;6.258;2022-12-10T04:06:15;0.20;;;0.20;;
46897;SDS011;32646;50.958;6.258;2022-12-10T04:08:43;0.20;;;0.20;;
46897;SDS011;32646;50.958;6.258;2022-12-10T04:11:11;0.20;;;0.20;;
46897;SDS011;32646;50.958;6.258;2022-12-10T04:13:38;0.20;;;0.20;;
46897;SDS011;32646;50.958;6.258;2022-12-10T04:16:07;0.20;;;0.20;;
46897;SDS011;32646;50.958;6.258;2022-12-10T04:18:34;0.20;;;0.20;;
46897;SDS011;32646;50.958;6.258;2022-12-10T04:21:00;0.20;;;0.20;;
46897;SDS011;32646;50.958;6.258;2022-12-10T04:23:27;0.20;;;0.20;;
46897;SDS011;32646;50.958;6.258;2022-12-10T04:25:53;0.30;;;0.30;;
46897;SDS011;32646;50.958;6.258;2022-12-10T04:28:20;0.20;;;0.20;;
46897;SDS011;32646;50.958;6.258;2022-12-10T04:30:46;0.20;;;0.20;;
46897;SDS011;32646;50.958;6.258;2022-12-10T04:33:13;0.20;;;0.20;;
46897;SDS011;32646;50.958;6.258;2022-12-10T04:35:39;0.20;;;0.20;;
46897;SDS011;32646;50.958;6.258;2022-12-10T04:38:06;0.20;;;0.20;;
46897;SDS011;32646;50.958;6.258;2022-12-10T04:40:33;0.20;;;0.20;;
46897;SDS011;32646;50.958;6.258;2022-12-10T04:42:59;0.20;;;0.20;;
46897;SDS011;32646;50.958;6.258;2022-12-10T04:45:25;0.20;;;0.20;;
46897;SDS011;32646;50.958;6.258;2022-12-10T04:47:52;0.20;;;0.20;;
46897;SDS011;32646;50.958;6.258;2022-12-10T04:50:19;0.20;;;0.20;;
46897;SDS011;32646;50.958;6.258;2022-12-10T04:52:45;0.20;;;0.20;;
46897;SDS011;32646;50.958;6.258;2022-12-10T04:55:12;0.20;;;0.20;;
46897;SDS011;32646;50.958;6.258;2022-12-10T04:57:38;0.20;;;0.20;;
46897;SDS011;32646;50.958;6.258;2022-12-10T05:00:05;0.20;;;0.20;;
46897;SDS011;32646;50.958;6.258;2022-12-10T05:02:32;0.20;;;0.20;;
46897;SDS011;32646;50.958;6.258;2022-12-10T05:04:59;0.20;;;0.20;;
46897;SDS011;32646;50.958;6.258;2022-12-10T05:07:25;0.20;;;0.20;;
46897;SDS011;32646;50.958;6.258;2022-12-10T05:09:52;0.20;;;0.20;;
46897;SDS011;32646;50.958;6.258;2022-12-10T05:12:18;0.20;;;0.20;;
46897;SDS011;32646;50.958;6.258;2022-12-10T05:14:45;0.20;;;0.20;;
46897;SDS011;32646;50.958;6.258;2022-12-10T05:17:11;0.20;;;0.20;;
46897;SDS011;32646;50.958;6.258;2022-12-10T05:19:38;0.20;;;0.20;;
46897;SDS011;32646;50.958;6.258;2022-12-10T05:22:04;0.20;;;0.20;;
46897;SDS011;32646;50.958;6.258;2022-12-10T05:24:31;0.20;;;0.20;;
46897;SDS011;32646;50.958;6.258;2022-12-10T05:26:58;0.20;;;0.20;;
46897;SDS011;32646;50.958;6.258;2022-12-10T05:29:24;0.20;;;0.20;;
46897;SDS011;32646;50.958;6.258;2022-12-10T05:31:51;0.20;;;0.20;;
46897;SDS011;32646;50.958;6.258;2022-12-10T05:34:17;0.20;;;0.20;;
46897;SDS011;32646;50.958;6.258;2022-12-10T05:36:44;0.20;;;0.20;;
46897;SDS011;32646;50.958;6.258;2022-12-10T05:39:10;0.25;;;0.25;;
46897;SDS011;32646;50.958;6.258;2022-12-10T05:41:38;0.20;;;0.20;;
46897;SDS011;32646;50.958;6.258;2022-12-10T05:44:06;0.20;;;0.20;;
46897;SDS011;32646;50.958;6.258;2022-12-10T05:46:33;0.20;;;0.20;;
46897;SDS011;32646;50.958;6.258;2022-12-10T05:49:01;0.20;;;0.20;;
46897;SDS011;32646;50.958;6.258;2022-12-10T05:51:30;0.25;;;0.25;;
46897;SDS011;32646;50.958;6.258;2022-12-10T05:53:58;0.20;;;0.20;;
46897;SDS011;32646;50.958;6.258;2022-12-10T05:56:26;0.20;;;0.20;;
46897;SDS011;32646;50.958;6.258;2022-12-10T05:58:54;0.30;;;0.30;;
46897;SDS011;32646;50.958;6.258;2022-12-10T06:01:25;0.20;;;0.20;;
46897;SDS011;32646;50.958;6.258;2022-12-10T06:03:54;0.20;;;0.20;;
46897;SDS011;32646;50.958;6.258;2022-12-10T06:06:24;0.20;;;0.20;;
46897;SDS011;32646;50.958;6.258;2022-12-10T06:08:54;0.20;;;0.20;;
46897;SDS011;32646;50.958;6.258;2022-12-10T06:11:21;0.20;;;0.20;;
46897;SDS011;32646;50.958;6.258;2022-12-10T06:13:48;0.20;;;0.20;;
46897;SDS011;32646;50.958;6.258;2022-12-10T06:16:21;0.20;;;0.20;;
46897;SDS011;32646;50.958;6.258;2022-12-10T06:18:48;0.20;;;0.20;;
46897;SDS011;32646;50.958;6.258;2022-12-10T06:21:16;0.20;;;0.20;;
46897;SDS011;32646;50.958;6.258;2022-12-10T06:23:43;0.20;;;0.20;;
46897;SDS011;32646;50.958;6.258;2022-12-10T06:26:11;0.20;;;0.20;;
46897;SDS011;32646;50.958;6.258;2022-12-10T06:28:40;0.20;;;0.20;;
46897;SDS011;32646;50.958;6.258;2022-12-10T06:31:07;0.20;;;0.20;;
46897;SDS011;32646;50.958;6.258;2022-12-10T06:33:34;0.20;;;0.20;;
46897;SDS011;32646;50.958;6.258;2022-12-10T06:36:04;0.20;;;0.20;;
46897;SDS011;32646;50.958;6.258;2022-12-10T06:38:32;0.20;;;0.20;;
46897;SDS011;32646;50.958;6.258;2022-12-10T06:40:59;0.20;;;0.20;;
46897;SDS011;32646;50.958;6.258;2022-12-10T06:43:28;0.20;;;0.20;;
46897;SDS011;32646;50.958;6.258;2022-12-10T06:45:55;0.20;;;0.20;;
46897;SDS011;32646;50.958;6.258;2022-12-10T06:48:21;0.20;;;0.20;;
46897;SDS011;32646;50.958;6.258;2022-12-10T06:50:48;0.20;;;0.20;;
46897;SDS011;32646;50.958;6.258;2022-12-10T06:53:14;0.20;;;0.20;;
46897;SDS011;32646;50.958;6.258;2022-12-10T06:55:41;0.20;;;0.20;;
46897;SDS011;32646;50.958;6.258;2022-12-10T06:58:07;0.20;;;0.20;;
46897;SDS011;32646;50.958;6.258;2022-12-10T07:00:34;0.20;;;0.20;;
46897;SDS011;32646;50.958;6.258;2022-12-10T07:03:00;0.20;;;0.20;;
46897;SDS011;32646;50.958;6.258;2022-12-10T07:05:27;0.20;;;0.20;;
46897;SDS011;32646;50.958;6.258;2022-12-10T07:07:53;0.20;;;0.20;;
46897;SDS011;32646;50.958;6.258;2022-12-10T07:10:20;0.20;;;0.20;;
46897;SDS011;32646;50.958;6.258;2022-12-10T07:12:46;0.20;;;0.20;;
46897;SDS011;32646;50.958;6.258;2022-12-10T07:15:13;0.20;;;0.20;;
46897;SDS011;32646;50.958;6.258;2022-12-10T07:17:39;0.28;;;0.28;;
46897;SDS011;32646;50.958;6.258;2022-12-10T07:20:06;0.20;;;0.20;;
46897;SDS011;32646;50.958;6.258;2022-12-10T07:22:33;0.20;;;0.20;;
46897;SDS011;32646;50.958;6.258;2022-12-10T07:25:00;0.20;;;0.20;;
46897;SDS011;32646;50.958;6.258;2022-12-10T07:27:26;0.20;;;0.20;;
46897;SDS011;32646;50.958;6.258;2022-12-10T07:29:53;0.20;;;0.20;;
46897;SDS011;32646;50.958;6.258;2022-12-10T07:32:20;0.20;;;0.20;;
46897;SDS011;32646;50.958;6.258;2022-12-10T07:34:46;0.20;;;0.20;;
46897;SDS011;32646;50.958;6.258;2022-12-10T07:37:13;0.25;;;0.25;;
46897;SDS011;32646;50.958;6.258;2022-12-10T07:39:39;0.20;;;0.20;;
46897;SDS011;32646;50.958;6.258;2022-12-10T07:42:06;0.20;;;0.20;;
46897;SDS011;32646;50.958;6.258;2022-12-10T07:44:32;0.20;;;0.20;;
46897;SDS011;32646;50.958;6.258;2022-12-10T07:46:59;0.20;;;0.20;;
46897;SDS011;32646;50.958;6.258;2022-12-10T07:49:25;0.20;;;0.20;;
46897;SDS011;32646;50.958;6.258;2022-12-10T07:51:52;0.20;;;0.20;;
46897;SDS011;32646;50.958;6.258;2022-12-10T07:54:18;0.20;;;0.20;;
46897;SDS011;32646;50.958;6.258;2022-12-10T07:56:45;0.20;;;0.20;;
46897;SDS011;32646;50.958;6.258;2022-12-10T07:59:12;0.20;;;0.20;;
46897;SDS011;32646;50.958;6.258;2022-12-10T08:01:38;0.20;;;0.20;;
46897;SDS011;32646;50.958;6.258;2022-12-10T08:04:06;0.20;;;0.20;;
46897;SDS011;32646;50.958;6.258;2022-12-10T08:06:32;0.20;;;0.20;;
46897;SDS011;32646;50.958;6.258;2022-12-10T08:08:59;0.20;;;0.20;;
46897;SDS011;32646;50.958;6.258;2022-12-10T08:11:27;0.20;;;0.20;;
46897;SDS011;32646;50.958;6.258;2022-12-10T08:13:54;0.20;;;0.20;;
46897;SDS011;32646;50.958;6.258;2022-12-10T08:16:23;0.20;;;0.20;;
46897;SDS011;32646;50.958;6.258;2022-12-10T08:18:52;0.20;;;0.20;;
46897;SDS011;32646;50.958;6.258;2022-12-10T08:21:24;0.20;;;0.20;;
46897;SDS011;32646;50.958;6.258;2022-12-10T08:23:53;0.20;;;0.20;;
46897;SDS011;32646;50.958;6.258;2022-12-10T08:26:21;0.20;;;0.20;;
46897;SDS011;32646;50.958;6.258;2022-12-10T08:28:49;0.20;;;0.20;;
46897;SDS011;32646;50.958;6.258;2022-12-10T08:31:17;0.20;;;0.20;;
46897;SDS011;32646;50.958;6.258;2022-12-10T08:33:45;0.20;;;0.20;;
46897;SDS011;32646;50.958;6.258;2022-12-10T08:36:12;0.20;;;0.20;;
46897;SDS011;32646;50.958;6.258;2022-12-10T08:38:40;0.20;;;0.20;;
46897;SDS011;32646;50.958;6.258;2022-12-10T08:41:28;0.20;;;0.20;;
46897;SDS011;32646;50.958;6.258;2022-12-10T08:43:54;0.20;;;0.20;;
46897;SDS011;32646;50.958;6.258;2022-12-10T08:46:21;0.20;;;0.20;;
46897;SDS011;32646;50.958;6.258;2022-12-10T08:48:48;0.20;;;0.20;;
46897;SDS011;32646;50.958;6.258;2022-12-10T08:51:15;0.20;;;0.20;;
46897;SDS011;32646;50.958;6.258;2022-12-10T08:53:43;0.20;;;0.20;;
46897;SDS011;32646;50.958;6.258;2022-12-10T08:56:10;0.20;;;0.20;;
46897;SDS011;32646;50.958;6.258;2022-12-10T08:58:37;0.20;;;0.20;;
46897;SDS011;32646;50.958;6.258;2022-12-10T09:01:05;0.20;;;0.20;;
46897;SDS011;32646;50.958;6.258;2022-12-10T09:03:36;0.20;;;0.20;;
46897;SDS011;32646;50.958;6.258;2022-12-10T09:06:04;0.10;;;0.10;;
46897;SDS011;32646;50.958;6.258;2022-12-10T09:08:32;0.20;;;0.20;;
46897;SDS011;32646;50.958;6.258;2022-12-10T09:11:04;0.13;;;0.13;;
46897;SDS011;32646;50.958;6.258;2022-12-10T09:13:34;0.10;;;0.10;;
46897;SDS011;32646;50.958;6.258;2022-12-10T09:16:01;0.10;;;0.10;;
46897;SDS011;32646;50.958;6.258;2022-12-10T09:18:29;0.10;;;0.10;;
46897;SDS011;32646;50.958;6.258;2022-12-10T09:20:55;0.10;;;0.10;;
46897;SDS011;32646;50.958;6.258;2022-12-10T09:23:22;0.13;;;0.13;;
46897;SDS011;32646;50.958;6.258;2022-12-10T09:25:48;0.10;;;0.10;;
46897;SDS011;32646;50.958;6.258;2022-12-10T09:28:15;0.10;;;0.10;;
46897;SDS011;32646;50.958;6.258;2022-12-10T09:30:41;0.10;;;0.10;;
46897;SDS011;32646;50.958;6.258;2022-12-10T09:33:08;0.10;;;0.10;;
46897;SDS011;32646;50.958;6.258;2022-12-10T09:35:39;0.10;;;0.10;;
46897;SDS011;32646;50.958;6.258;2022-12-10T09:38:06;0.10;;;0.10;;
46897;SDS011;32646;50.958;6.258;2022-12-10T09:41:10;0.10;;;0.10;;
46897;SDS011;32646;50.958;6.258;2022-12-10T09:43:41;0.10;;;0.10;;
46897;SDS011;32646;50.958;6.258;2022-12-10T09:52:03;0.20;;;0.20;;
46897;SDS011;32646;50.958;6.258;2022-12-10T09:54:32;0.17;;;0.17;;
46897;SDS011;32646;50.958;6.258;2022-12-10T09:57:19;0.20;;;0.20;;
46897;SDS011;32646;50.958;6.258;2022-12-10T09:59:54;0.10;;;0.10;;
46897;SDS011;32646;50.958;6.258;2022-12-10T10:02:24;0.10;;;0.10;;
46897;SDS011;32646;50.958;6.258;2022-12-10T10:04:51;0.10;;;0.10;;
46897;SDS011;32646;50.958;6.258;2022-12-10T10:07:25;0.10;;;0.10;;
46897;SDS011;32646;50.958;6.258;2022-12-10T10:09:57;0.20;;;0.20;;
46897;SDS011;32646;50.958;6.258;2022-12-10T10:12:27;0.20;;;0.20;;
46897;SDS011;32646;50.958;6.258;2022-12-10T10:14:56;0.10;;;0.10;;
46897;SDS011;32646;50.958;6.258;2022-12-10T10:17:27;0.10;;;0.10;;
46897;SDS011;32646;50.958;6.258;2022-12-10T10:19:59;0.10;;;0.10;;
46897;SDS011;32646;50.958;6.258;2022-12-10T10:22:25;0.20;;;0.20;;
46897;SDS011;32646;50.958;6.258;2022-12-10T10:24:52;0.10;;;0.10;;
46897;SDS011;32646;50.958;6.258;2022-12-10T10:27:20;0.20;;;0.20;;
46897;SDS011;32646;50.958;6.258;2022-12-10T10:29:50;0.10;;;0.10;;
46897;SDS011;32646;50.958;6.258;2022-12-10T10:34:55;0.10;;;0.10;;
46897;SDS011;32646;50.958;6.258;2022-12-10T10:39:55;0.20;;;0.20;;
46897;SDS011;32646;50.958;6.258;2022-12-10T10:42:39;0.10;;;0.10;;
46897;SDS011;32646;50.958;6.258;2022-12-10T10:48:13;0.20;;;0.20;;
46897;SDS011;32646;50.958;6.258;2022-12-10T10:50:42;0.13;;;0.13;;
46897;SDS011;32646;50.958;6.258;2022-12-10T10:55:51;0.20;;;0.20;;
46897;SDS011;32646;50.958;6.258;2022-12-10T10:58:21;0.20;;;0.20;;
46897;SDS011;32646;50.958;6.258;2022-12-10T11:01:02;0.20;;;0.20;;
46897;SDS011;32646;50.958;6.258;2022-12-10T11:03:32;0.10;;;0.10;;
46897;SDS011;32646;50.958;6.258;2022-12-10T11:06:01;0.10;;;0.10;;
46897;SDS011;32646;50.958;6.258;2022-12-10T11:08:32;0.10;;;0.10;;
46897;SDS011;32646;50.958;6.258;2022-12-10T11:11:04;0.10;;;0.10;;
46897;SDS011;32646;50.958;6.258;2022-12-10T11:13:36;0.20;;;0.20;;
46897;SDS011;32646;50.958;6.258;2022-12-10T11:16:11;0.20;;;0.20;;
46897;SDS011;32646;50.958;6.258;2022-12-10T11:21:20;0.20;;;0.20;;
46897;SDS011;32646;50.958;6.258;2022-12-10T11:23:48;0.20;;;0.20;;
46897;SDS011;32646;50.958;6.258;2022-12-10T11:34:40;0.20;;;0.20;;
46897;SDS011;32646;50.958;6.258;2022-12-10T11:40:13;0.20;;;0.20;;
46897;SDS011;32646;50.958;6.258;2022-12-10T11:51:05;0.20;;;0.20;;
46897;SDS011;32646;50.958;6.258;2022-12-10T11:56:22;0.20;;;0.20;;
46897;SDS011;32646;50.958;6.258;2022-12-10T12:02:17;0.20;;;0.20;;
46897;SDS011;32646;50.958;6.258;2022-12-10T12:05:36;0.20;;;0.20;;
46897;SDS011;32646;50.958;6.258;2022-12-10T12:14:20;0.20;;;0.20;;
46897;SDS011;32646;50.958;6.258;2022-12-10T12:19:45;0.20;;;0.20;;
46897;SDS011;32646;50.958;6.258;2022-12-10T12:22:23;0.20;;;0.20;;
46897;SDS011;32646;50.958;6.258;2022-12-10T12:24:54;0.20;;;0.20;;
46897;SDS011;32646;50.958;6.258;2022-12-10T12:27:32;0.20;;;0.20;;
46897;SDS011;32646;50.958;6.258;2022-12-10T12:35:23;0.20;;;0.20;;
46897;SDS011;32646;50.958;6.258;2022-12-10T12:40:34;0.20;;;0.20;;
46897;SDS011;32646;50.958;6.258;2022-12-10T12:43:09;0.20;;;0.20;;
46897;SDS011;32646;50.958;6.258;2022-12-10T12:45:41;0.20;;;0.20;;
46897;SDS011;32646;50.958;6.258;2022-12-10T12:48:32;0.20;;;0.20;;
46897;SDS011;32646;50.958;6.258;2022-12-10T12:51:16;0.20;;;0.20;;
46897;SDS011;32646;50.958;6.258;2022-12-10T12:53:46;0.10;;;0.10;;
46897;SDS011;32646;50.958;6.258;2022-12-10T12:59:08;0.20;;;0.20;;
46897;SDS011;32646;50.958;6.258;2022-12-10T13:01:53;0.20;;;0.20;;
46897;SDS011;32646;50.958;6.258;2022-12-10T13:04:27;0.20;;;0.20;;
46897;SDS011;32646;50.958;6.258;2022-12-10T13:10:23;0.20;;;0.20;;
46897;SDS011;32646;50.958;6.258;2022-12-10T13:15:49;0.20;;;0.20;;
46897;SDS011;32646;50.958;6.258;2022-12-10T13:20:45;0.20;;;0.20;;
46897;SDS011;32646;50.958;6.258;2022-12-10T13:23:32;0.20;;;0.20;;
46897;SDS011;32646;50.958;6.258;2022-12-10T13:26:19;0.20;;;0.20;;
46897;SDS011;32646;50.958;6.258;2022-12-10T13:28:50;0.20;;;0.20;;
46897;SDS011;32646;50.958;6.258;2022-12-10T13:31:21;0.20;;;0.20;;
46897;SDS011;32646;50.958;6.258;2022-12-10T13:39:20;0.20;;;0.20;;
46897;SDS011;32646;50.958;6.258;2022-12-10T13:44:35;0.20;;;0.20;;
46897;SDS011;32646;50.958;6.258;2022-12-10T13:47:32;0.20;;;0.20;;
46897;SDS011;32646;50.958;6.258;2022-12-10T13:50:20;0.20;;;0.20;;
46897;SDS011;32646;50.958;6.258;2022-12-10T13:55:55;0.20;;;0.20;;
46897;SDS011;32646;50.958;6.258;2022-12-10T14:01:42;0.20;;;0.20;;
46897;SDS011;32646;50.958;6.258;2022-12-10T14:04:25;0.20;;;0.20;;
46897;SDS011;32646;50.958;6.258;2022-12-10T14:06:57;0.20;;;0.20;;
46897;SDS011;32646;50.958;6.258;2022-12-10T14:09:27;0.20;;;0.20;;
46897;SDS011;32646;50.958;6.258;2022-12-10T14:12:01;0.20;;;0.20;;
46897;SDS011;32646;50.958;6.258;2022-12-10T14:14:38;0.10;;;0.10;;
46897;SDS011;32646;50.958;6.258;2022-12-10T14:19:40;0.20;;;0.20;;
46897;SDS011;32646;50.958;6.258;2022-12-10T14:22:12;0.20;;;0.20;;
46897;SDS011;32646;50.958;6.258;2022-12-10T14:24:52;0.20;;;0.20;;
46897;SDS011;32646;50.958;6.258;2022-12-10T14:27:19;0.20;;;0.20;;
46897;SDS011;32646;50.958;6.258;2022-12-10T14:30:33;0.10;;;0.10;;
46897;SDS011;32646;50.958;6.258;2022-12-10T14:32:43;0.20;;;0.20;;
46897;SDS011;32646;50.958;6.258;2022-12-10T14:35:15;0.20;;;0.20;;
46897;SDS011;32646;50.958;6.258;2022-12-10T14:37:51;0.10;;;0.10;;
46897;SDS011;32646;50.958;6.258;2022-12-10T14:42:46;0.20;;;0.20;;
46897;SDS011;32646;50.958;6.258;2022-12-10T14:45:13;0.20;;;0.20;;
46897;SDS011;32646;50.958;6.258;2022-12-10T14:47:41;0.20;;;0.20;;
46897;SDS011;32646;50.958;6.258;2022-12-10T14:50:15;0.20;;;0.20;;
46897;SDS011;32646;50.958;6.258;2022-12-10T14:52:44;0.20;;;0.20;;
46897;SDS011;32646;50.958;6.258;2022-12-10T14:55:17;0.20;;;0.20;;
46897;SDS011;32646;50.958;6.258;2022-12-10T14:57:54;0.20;;;0.20;;
46897;SDS011;32646;50.958;6.258;2022-12-10T15:00:27;0.20;;;0.20;;
46897;SDS011;32646;50.958;6.258;2022-12-10T15:02:56;0.20;;;0.20;;
46897;SDS011;32646;50.958;6.258;2022-12-10T15:05:28;0.13;;;0.13;;
46897;SDS011;32646;50.958;6.258;2022-12-10T15:07:59;0.20;;;0.20;;
46897;SDS011;32646;50.958;6.258;2022-12-10T15:10:31;0.20;;;0.20;;
46897;SDS011;32646;50.958;6.258;2022-12-10T15:13:01;0.20;;;0.20;;
46897;SDS011;32646;50.958;6.258;2022-12-10T15:15:38;0.20;;;0.20;;
46897;SDS011;32646;50.958;6.258;2022-12-10T15:31:11;0.20;;;0.20;;
46897;SDS011;32646;50.958;6.258;2022-12-10T15:33:54;0.20;;;0.20;;
46897;SDS011;32646;50.958;6.258;2022-12-10T15:36:36;0.20;;;0.20;;
46897;SDS011;32646;50.958;6.258;2022-12-10T15:41:48;0.20;;;0.20;;
46897;SDS011;32646;50.958;6.258;2022-12-10T15:47:05;0.20;;;0.20;;
46897;SDS011;32646;50.958;6.258;2022-12-10T15:49:38;0.10;;;0.10;;
46897;SDS011;32646;50.958;6.258;2022-12-10T15:52:04;0.20;;;0.20;;
46897;SDS011;32646;50.958;6.258;2022-12-10T15:57:00;0.20;;;0.20;;
46897;SDS011;32646;50.958;6.258;2022-12-10T15:59:38;0.20;;;0.20;;
46897;SDS011;32646;50.958;6.258;2022-12-10T16:02:10;0.20;;;0.20;;
46897;SDS011;32646;50.958;6.258;2022-12-10T16:04:43;0.20;;;0.20;;
46897;SDS011;32646;50.958;6.258;2022-12-10T16:07:10;0.20;;;0.20;;
46897;SDS011;32646;50.958;6.258;2022-12-10T16:09:36;0.20;;;0.20;;
46897;SDS011;32646;50.958;6.258;2022-12-10T16:12:03;0.20;;;0.20;;
46897;SDS011;32646;50.958;6.258;2022-12-10T16:14:30;0.20;;;0.20;;
46897;SDS011;32646;50.958;6.258;2022-12-10T16:16:56;0.20;;;0.20;;
46897;SDS011;32646;50.958;6.258;2022-12-10T16:19:23;0.20;;;0.20;;
46897;SDS011;32646;50.958;6.258;2022-12-10T16:21:49;0.20;;;0.20;;
46897;SDS011;32646;50.958;6.258;2022-12-10T16:24:16;0.20;;;0.20;;
46897;SDS011;32646;50.958;6.258;2022-12-10T16:26:42;0.20;;;0.20;;
46897;SDS011;32646;50.958;6.258;2022-12-10T16:29:09;0.20;;;0.20;;
46897;SDS011;32646;50.958;6.258;2022-12-10T16:31:36;0.20;;;0.20;;
46897;SDS011;32646;50.958;6.258;2022-12-10T16:34:02;0.20;;;0.20;;
46897;SDS011;32646;50.958;6.258;2022-12-10T16:36:29;0.20;;;0.20;;
46897;SDS011;32646;50.958;6.258;2022-12-10T16:38:55;0.20;;;0.20;;
46897;SDS011;32646;50.958;6.258;2022-12-10T16:41:22;0.20;;;0.20;;
46897;SDS011;32646;50.958;6.258;2022-12-10T16:43:50;0.20;;;0.20;;
46897;SDS011;32646;50.958;6.258;2022-12-10T16:46:17;0.20;;;0.20;;
46897;SDS011;32646;50.958;6.258;2022-12-10T16:48:43;0.20;;;0.20;;
46897;SDS011;32646;50.958;6.258;2022-12-10T16:51:15;0.20;;;0.20;;
46897;SDS011;32646;50.958;6.258;2022-12-10T16:53:46;0.20;;;0.20;;
46897;SDS011;32646;50.958;6.258;2022-12-10T16:56:13;0.20;;;0.20;;
46897;SDS011;32646;50.958;6.258;2022-12-10T16:58:42;0.20;;;0.20;;
46897;SDS011;32646;50.958;6.258;2022-12-10T17:01:17;0.20;;;0.20;;
46897;SDS011;32646;50.958;6.258;2022-12-10T17:03:51;0.20;;;0.20;;
46897;SDS011;32646;50.958;6.258;2022-12-10T17:06:18;0.20;;;0.20;;
46897;SDS011;32646;50.958;6.258;2022-12-10T17:08:45;0.20;;;0.20;;
46897;SDS011;32646;50.958;6.258;2022-12-10T17:11:19;0.20;;;0.20;;
46897;SDS011;32646;50.958;6.258;2022-12-10T17:13:51;0.20;;;0.20;;
46897;SDS011;32646;50.958;6.258;2022-12-10T17:16:20;0.20;;;0.20;;